createdAt,value
2022-09-10T00:00:20.680Z,1.44
2022-09-10T00:00:51.671Z,2.89
2022-09-10T00:01:22.218Z,1.77
2022-09-10T00:01:55.608Z,1.77
2022-09-10T00:02:27.803Z,2.09
2022-09-10T00:02:50.207Z,4.02
2022-09-10T00:03:12.877Z,2.09
2022-09-10T00:03:47.631Z,1.12
2022-09-10T00:04:21.198Z,2.09
2022-09-10T00:04:51.751Z,2.09
2022-09-10T00:05:22.219Z,2.09
2022-09-10T00:05:55.504Z,3.21
2022-09-10T00:06:27.678Z,1.44
2022-09-10T00:06:50.791Z,4.02
2022-09-10T00:07:12.923Z,2.89
2022-09-10T00:07:47.658Z,1.77
2022-09-10T00:08:21.940Z,.64
2022-09-10T00:08:51.569Z,.32
2022-09-10T00:09:22.065Z,1.44
2022-09-10T00:09:55.683Z,0
2022-09-10T00:10:27.745Z,0
2022-09-10T00:10:50.594Z,0
2022-09-10T00:11:12.862Z,1.44
2022-09-10T00:11:47.641Z,1.44
2022-09-10T00:12:22.088Z,.64
2022-09-10T00:12:51.639Z,.32
2022-09-10T00:13:22.594Z,1.12
2022-09-10T00:13:55.664Z,1.44
2022-09-10T00:14:27.806Z,1.12
2022-09-10T00:14:51.772Z,0
2022-09-10T00:15:14.172Z,1.12
2022-09-10T00:15:47.716Z,1.44
2022-09-10T00:16:19.731Z,1.77
2022-09-10T00:16:51.595Z,1.44
2022-09-10T00:17:22.990Z,0
2022-09-10T00:17:55.723Z,0
2022-09-10T00:18:27.770Z,0
2022-09-10T00:18:50.651Z,0
2022-09-10T00:19:12.909Z,.32
2022-09-10T00:19:47.630Z,1.12
2022-09-10T00:20:19.686Z,.32
2022-09-10T00:20:51.613Z,1.44
2022-09-10T00:21:23.437Z,1.44
2022-09-10T00:21:55.560Z,.32
2022-09-10T00:22:27.574Z,.32
2022-09-10T00:22:50.998Z,.64
2022-09-10T00:23:13.354Z,1.12
2022-09-10T00:23:47.669Z,0
2022-09-10T00:24:19.658Z,1.77
2022-09-10T00:24:51.631Z,0
2022-09-10T00:25:24.341Z,0
2022-09-10T00:25:55.587Z,.32
2022-09-10T00:26:27.544Z,.64
2022-09-10T00:26:50.327Z,0
2022-09-10T00:27:12.761Z,1.12
2022-09-10T00:27:47.573Z,0
2022-09-10T00:28:20.037Z,0
2022-09-10T00:28:51.831Z,0
2022-09-10T00:29:24.980Z,0
2022-09-10T00:29:55.577Z,0
2022-09-10T00:30:27.902Z,0
2022-09-10T00:30:51.392Z,0
2022-09-10T00:31:13.636Z,0
2022-09-10T00:31:47.515Z,0
2022-09-10T00:32:19.593Z,0
2022-09-10T00:32:51.611Z,0
2022-09-10T00:33:21.991Z,0
2022-09-10T00:33:55.582Z,0
2022-09-10T00:34:27.506Z,0
2022-09-10T00:34:50.340Z,0
2022-09-10T00:35:12.444Z,0
2022-09-10T00:35:47.607Z,.32
2022-09-10T00:36:19.523Z,0
2022-09-10T00:36:51.563Z,0
2022-09-10T00:37:22.049Z,.64
2022-09-10T00:37:55.700Z,1.77
2022-09-10T00:38:27.503Z,0
2022-09-10T00:38:51.385Z,0
2022-09-10T00:39:13.757Z,1.44
2022-09-10T00:39:47.637Z,1.77
2022-09-10T00:40:19.678Z,2.09
2022-09-10T00:40:51.578Z,.32
2022-09-10T00:41:26.448Z,1.44
2022-09-10T00:41:55.464Z,.32
2022-09-10T00:42:27.488Z,.32
2022-09-10T00:42:50.145Z,0
2022-09-10T00:43:12.570Z,.32
2022-09-10T00:43:47.554Z,1.77
2022-09-10T00:44:19.612Z,0
2022-09-10T00:44:51.587Z,0
2022-09-10T00:45:22.174Z,0
2022-09-10T00:45:55.650Z,0
2022-09-10T00:46:27.573Z,0
2022-09-10T00:46:50.918Z,0
2022-09-10T00:47:13.452Z,0
2022-09-10T00:47:47.490Z,0
2022-09-10T00:48:19.776Z,0
2022-09-10T00:48:51.800Z,.32
2022-09-10T00:49:22.253Z,0
2022-09-10T00:49:55.676Z,0
2022-09-10T00:50:27.780Z,0
2022-09-10T00:50:50.195Z,0
2022-09-10T00:51:12.615Z,0
2022-09-10T00:51:47.660Z,0
2022-09-10T00:52:19.729Z,0
2022-09-10T00:52:51.699Z,0
2022-09-10T00:53:39.974Z,0
2022-09-10T00:54:02.216Z,0
2022-09-10T00:54:24.999Z,0
2022-09-10T00:55:01.696Z,0
2022-09-10T00:55:31.833Z,2.89
2022-09-10T00:55:54.360Z,2.89
2022-09-10T00:56:17.165Z,1.44
2022-09-10T00:56:51.628Z,2.09
2022-09-10T00:57:22.580Z,0
2022-09-10T00:57:55.427Z,.32
2022-09-10T00:58:28.483Z,1.44
2022-09-10T00:58:50.601Z,.32
2022-09-10T00:59:13.119Z,.32
2022-09-10T00:59:48.807Z,.32
2022-09-10T01:00:19.938Z,0
2022-09-10T01:00:51.930Z,1.12
2022-09-10T01:01:22.279Z,1.44
2022-09-10T01:01:55.994Z,.64
2022-09-10T01:02:29.346Z,1.44
2022-09-10T01:02:50.531Z,1.77
2022-09-10T01:03:14.180Z,0
2022-09-10T01:03:47.934Z,.32
2022-09-10T01:04:19.640Z,1.12
2022-09-10T01:04:51.892Z,.32
2022-09-10T01:05:22.367Z,1.44
2022-09-10T01:05:55.491Z,2.57
2022-09-10T01:06:29.791Z,1.77
2022-09-10T01:06:50.941Z,2.09
2022-09-10T01:07:13.613Z,0
2022-09-10T01:07:48.004Z,0
2022-09-10T01:08:19.729Z,1.77
2022-09-10T01:08:51.690Z,2.57
2022-09-10T01:09:22.156Z,1.12
2022-09-10T01:09:55.776Z,0
2022-09-10T01:10:31.148Z,0
2022-09-10T01:10:50.354Z,.32
2022-09-10T01:11:13.972Z,.32
2022-09-10T01:11:47.788Z,.64
2022-09-10T01:12:19.759Z,1.12
2022-09-10T01:12:51.521Z,1.77
2022-09-10T01:13:23.745Z,4.34
2022-09-10T01:13:56.663Z,2.09
2022-09-10T01:14:28.335Z,1.44
2022-09-10T01:14:50.713Z,1.77
2022-09-10T01:15:13.995Z,1.44
2022-09-10T01:15:47.938Z,1.77
2022-09-10T01:16:19.592Z,1.77
2022-09-10T01:16:51.550Z,1.44
2022-09-10T01:17:22.072Z,.64
2022-09-10T01:17:57.013Z,0
2022-09-10T01:18:27.578Z,1.44
2022-09-10T01:18:50.117Z,3.54
2022-09-10T01:19:12.867Z,2.89
2022-09-10T01:19:48.410Z,1.77
2022-09-10T01:20:20.525Z,1.44
2022-09-10T01:20:51.554Z,2.57
2022-09-10T01:21:22.246Z,1.77
2022-09-10T01:21:55.530Z,2.57
2022-09-10T01:22:28.168Z,1.44
2022-09-10T01:22:50.826Z,1.77
2022-09-10T01:23:17.473Z,2.09
2022-09-10T01:23:47.838Z,1.12
2022-09-10T01:24:19.614Z,1.44
2022-09-10T01:24:51.674Z,0
2022-09-10T01:25:22.285Z,0
2022-09-10T01:25:55.625Z,0
2022-09-10T01:26:27.488Z,0
2022-09-10T01:26:50.246Z,0
2022-09-10T01:27:13.087Z,0
2022-09-10T01:27:47.799Z,0
2022-09-10T01:28:19.678Z,.32
2022-09-10T01:28:51.531Z,.32
2022-09-10T01:29:23.550Z,0
2022-09-10T01:29:55.704Z,1.12
2022-09-10T01:30:27.749Z,0
2022-09-10T01:30:50.461Z,0
2022-09-10T01:31:12.947Z,0
2022-09-10T01:31:48.551Z,0
2022-09-10T01:32:19.825Z,0
2022-09-10T01:32:52.634Z,0
2022-09-10T01:33:22.102Z,0
2022-09-10T01:33:55.733Z,0
2022-09-10T01:34:27.786Z,0
2022-09-10T01:34:50.210Z,0
2022-09-10T01:35:13.174Z,0
2022-09-10T01:35:47.643Z,0
2022-09-10T01:36:20.342Z,0
2022-09-10T01:36:51.631Z,0
2022-09-10T01:37:22.396Z,0
2022-09-10T01:37:55.619Z,0
2022-09-10T01:38:27.909Z,0
2022-09-10T01:38:50.571Z,0
2022-09-10T01:39:13.093Z,0
2022-09-10T01:39:47.971Z,0
2022-09-10T01:40:19.936Z,0
2022-09-10T01:40:51.511Z,0
2022-09-10T01:41:22.438Z,0
2022-09-10T01:41:56.062Z,.32
2022-09-10T01:42:27.536Z,0
2022-09-10T01:42:50.273Z,0
2022-09-10T01:43:13.205Z,0
2022-09-10T01:43:48.221Z,.64
2022-09-10T01:44:19.509Z,1.44
2022-09-10T01:44:51.415Z,1.12
2022-09-10T01:45:22.297Z,1.77
2022-09-10T01:45:56.049Z,1.77
2022-09-10T01:46:27.886Z,1.77
2022-09-10T01:46:50.701Z,1.77
2022-09-10T01:47:13.113Z,1.77
2022-09-10T01:47:47.808Z,1.77
2022-09-10T01:48:19.523Z,1.44
2022-09-10T01:48:51.841Z,1.44
2022-09-10T01:49:22.243Z,1.77
2022-09-10T01:49:55.674Z,1.77
2022-09-10T01:50:27.632Z,1.12
2022-09-10T01:50:50.849Z,1.12
2022-09-10T01:51:13.207Z,1.77
2022-09-10T01:51:48.162Z,2.09
2022-09-10T01:52:20.291Z,2.09
2022-09-10T01:52:51.637Z,1.12
2022-09-10T01:53:22.312Z,2.09
2022-09-10T01:53:57.023Z,1.44
2022-09-10T01:54:27.984Z,2.09
2022-09-10T01:54:50.689Z,1.44
2022-09-10T01:55:13.377Z,1.44
2022-09-10T01:55:47.574Z,2.89
2022-09-10T01:56:19.591Z,1.44
2022-09-10T01:56:51.506Z,.32
2022-09-10T01:57:22.611Z,2.89
2022-09-10T01:57:57.041Z,1.77
2022-09-10T01:58:27.690Z,1.12
2022-09-10T01:58:50.066Z,1.12
2022-09-10T01:59:12.690Z,0
2022-09-10T01:59:47.910Z,.32
2022-09-10T02:00:19.853Z,0
2022-09-10T02:00:51.728Z,0
2022-09-10T02:01:23.674Z,0
2022-09-10T02:01:55.643Z,1.77
2022-09-10T02:02:27.954Z,1.77
2022-09-10T02:02:50.699Z,1.44
2022-09-10T02:03:13.342Z,1.12
2022-09-10T02:03:48.421Z,1.12
2022-09-10T02:04:19.623Z,0
2022-09-10T02:04:52.181Z,.32
2022-09-10T02:05:22.545Z,.32
2022-09-10T02:05:55.766Z,1.12
2022-09-10T02:06:27.810Z,0
2022-09-10T02:06:50.435Z,0
2022-09-10T02:07:31.534Z,0
2022-09-10T02:07:54.336Z,.32
2022-09-10T02:08:17.607Z,1.12
2022-09-10T02:08:53.000Z,1.44
2022-09-10T02:09:22.427Z,.64
2022-09-10T02:09:56.106Z,.64
2022-09-10T02:10:27.835Z,.64
2022-09-10T02:10:50.532Z,1.44
2022-09-10T02:11:12.920Z,.32
2022-09-10T02:11:48.256Z,1.12
2022-09-10T02:12:19.437Z,.64
2022-09-10T02:12:51.629Z,0
2022-09-10T02:13:25.751Z,0
2022-09-10T02:13:57.081Z,0
2022-09-10T02:14:28.018Z,.32
2022-09-10T02:14:50.666Z,0
2022-09-10T02:15:13.897Z,0
2022-09-10T02:15:47.488Z,0
2022-09-10T02:16:19.671Z,.32
2022-09-10T02:16:51.488Z,1.44
2022-09-10T02:17:22.946Z,.32
2022-09-10T02:17:55.557Z,0
2022-09-10T02:18:28.238Z,.32
2022-09-10T02:18:50.657Z,0
2022-09-10T02:19:13.165Z,0
2022-09-10T02:19:47.671Z,0
2022-09-10T02:20:19.623Z,0
2022-09-10T02:20:51.482Z,0
2022-09-10T02:21:22.103Z,0
2022-09-10T02:21:56.482Z,.32
2022-09-10T02:22:27.731Z,1.44
2022-09-10T02:22:50.464Z,.32
2022-09-10T02:23:13.951Z,0
2022-09-10T02:23:49.206Z,1.44
2022-09-10T02:24:20.074Z,0
2022-09-10T02:24:51.665Z,1.44
2022-09-10T02:25:22.234Z,1.44
2022-09-10T02:25:55.592Z,1.44
2022-09-10T02:26:27.970Z,2.09
2022-09-10T02:26:50.663Z,1.77
2022-09-10T02:27:13.085Z,1.77
2022-09-10T02:27:48.312Z,1.77
2022-09-10T02:28:19.452Z,1.77
2022-09-10T02:28:51.566Z,1.77
2022-09-10T02:29:23.629Z,1.77
2022-09-10T02:29:55.954Z,1.77
2022-09-10T02:30:27.476Z,2.09
2022-09-10T02:30:50.140Z,2.89
2022-09-10T02:31:12.692Z,2.09
2022-09-10T02:31:47.649Z,1.77
2022-09-10T02:32:19.661Z,1.44
2022-09-10T02:32:51.798Z,1.77
2022-09-10T02:33:22.102Z,1.12
2022-09-10T02:33:56.034Z,2.89
2022-09-10T02:34:28.685Z,1.77
2022-09-10T02:34:51.486Z,1.77
2022-09-10T02:35:13.695Z,2.09
2022-09-10T02:35:47.701Z,2.09
2022-09-10T02:36:19.466Z,1.44
2022-09-10T02:36:51.500Z,1.77
2022-09-10T02:37:22.232Z,1.77
2022-09-10T02:37:56.062Z,1.77
2022-09-10T02:38:27.781Z,1.77
2022-09-10T02:38:50.765Z,1.44
2022-09-10T02:39:13.617Z,1.77
2022-09-10T02:39:47.466Z,1.77
2022-09-10T02:40:20.448Z,1.77
2022-09-10T02:40:51.676Z,2.09
2022-09-10T02:41:22.788Z,1.77
2022-09-10T02:41:55.711Z,1.77
2022-09-10T02:42:27.590Z,1.77
2022-09-10T02:42:50.321Z,1.77
2022-09-10T02:43:13.195Z,1.44
2022-09-10T02:43:48.165Z,2.09
2022-09-10T02:44:19.409Z,1.77
2022-09-10T02:44:51.439Z,1.77
2022-09-10T02:45:22.477Z,1.77
2022-09-10T02:45:55.937Z,2.09
2022-09-10T02:46:27.721Z,1.44
2022-09-10T02:46:50.660Z,1.77
2022-09-10T02:47:13.239Z,.64
2022-09-10T02:47:47.525Z,.64
2022-09-10T02:48:19.969Z,1.44
2022-09-10T02:48:51.543Z,.32
2022-09-10T02:49:22.525Z,.32
2022-09-10T02:49:55.748Z,1.12
2022-09-10T02:50:27.843Z,0
2022-09-10T02:50:50.557Z,.32
2022-09-10T02:51:13.150Z,.32
2022-09-10T02:51:47.758Z,.32
2022-09-10T02:52:19.868Z,1.12
2022-09-10T02:52:51.852Z,1.44
2022-09-10T02:53:22.142Z,0
2022-09-10T02:53:56.547Z,0
2022-09-10T02:54:27.549Z,0
2022-09-10T02:54:50.271Z,0
2022-09-10T02:55:13.409Z,.32
2022-09-10T02:55:47.441Z,.64
2022-09-10T02:56:19.746Z,0
2022-09-10T02:56:51.424Z,0
2022-09-10T02:57:22.225Z,0
2022-09-10T02:57:55.462Z,0
2022-09-10T02:58:27.446Z,0
2022-09-10T02:58:50.278Z,0
2022-09-10T02:59:12.837Z,0
2022-09-10T02:59:48.005Z,0
2022-09-10T03:00:20.054Z,0
2022-09-10T03:00:52.472Z,.64
2022-09-10T03:01:22.129Z,0
2022-09-10T03:01:55.583Z,.64
2022-09-10T03:02:28.100Z,.64
2022-09-10T03:02:50.728Z,.64
2022-09-10T03:03:14.061Z,1.44
2022-09-10T03:03:49.201Z,1.44
2022-09-10T03:04:19.739Z,1.44
2022-09-10T03:04:51.765Z,1.12
2022-09-10T03:05:22.915Z,1.12
2022-09-10T03:05:55.706Z,1.77
2022-09-10T03:06:28.389Z,0
2022-09-10T03:06:51.147Z,0
2022-09-10T03:07:14.139Z,.32
2022-09-10T03:07:47.417Z,1.44
2022-09-10T03:08:20.113Z,1.12
2022-09-10T03:08:51.774Z,0
2022-09-10T03:09:22.371Z,0
2022-09-10T03:09:55.609Z,2.09
2022-09-10T03:10:27.737Z,1.44
2022-09-10T03:10:50.488Z,1.77
2022-09-10T03:11:13.219Z,1.44
2022-09-10T03:11:47.622Z,1.77
2022-09-10T03:12:19.489Z,2.57
2022-09-10T03:12:51.343Z,1.12
2022-09-10T03:13:24.010Z,1.77
2022-09-10T03:13:56.272Z,1.77
2022-09-10T03:14:28.382Z,.64
2022-09-10T03:14:51.153Z,0
2022-09-10T03:15:13.821Z,0
2022-09-10T03:15:48.334Z,0
2022-09-10T03:16:19.526Z,0
2022-09-10T03:16:52.125Z,.32
2022-09-10T03:17:22.296Z,0
2022-09-10T03:17:55.524Z,0
2022-09-10T03:18:27.777Z,0
2022-09-10T03:18:50.529Z,0
2022-09-10T03:19:13.974Z,0
2022-09-10T03:19:47.681Z,1.12
2022-09-10T03:20:19.369Z,.32
2022-09-10T03:20:51.427Z,1.44
2022-09-10T03:21:22.391Z,1.44
2022-09-10T03:21:55.386Z,1.44
2022-09-10T03:22:27.980Z,1.77
2022-09-10T03:22:50.831Z,.64
2022-09-10T03:23:13.366Z,1.77
2022-09-10T03:23:49.071Z,2.09
2022-09-10T03:24:20.224Z,.32
2022-09-10T03:24:52.195Z,1.77
2022-09-10T03:25:22.185Z,3.21
2022-09-10T03:25:55.755Z,1.77
2022-09-10T03:26:27.586Z,2.57
2022-09-10T03:26:50.466Z,2.09
2022-09-10T03:27:12.778Z,1.44
2022-09-10T03:27:49.291Z,0
2022-09-10T03:28:20.255Z,0
2022-09-10T03:28:51.798Z,0
2022-09-10T03:29:22.184Z,0
2022-09-10T03:29:55.578Z,0
2022-09-10T03:30:27.564Z,0
2022-09-10T03:30:50.324Z,0
2022-09-10T03:31:13.050Z,0
2022-09-10T03:31:49.634Z,0
2022-09-10T03:32:19.344Z,2.09
2022-09-10T03:32:51.662Z,0
2022-09-10T03:33:23.708Z,0
2022-09-10T03:33:55.607Z,0
2022-09-10T03:34:27.396Z,0
2022-09-10T03:34:50.263Z,0
2022-09-10T03:35:12.491Z,0
2022-09-10T03:35:49.854Z,0
2022-09-10T03:36:19.449Z,0
2022-09-10T03:36:51.434Z,0
2022-09-10T03:37:22.069Z,0
2022-09-10T03:37:55.516Z,0
2022-09-10T03:38:27.544Z,0
2022-09-10T03:38:50.557Z,.64
2022-09-10T03:39:12.948Z,1.12
2022-09-10T03:39:47.531Z,0
2022-09-10T03:40:19.386Z,0
2022-09-10T03:40:51.268Z,0
2022-09-10T03:41:22.115Z,0
2022-09-10T03:41:55.340Z,0
2022-09-10T03:42:28.147Z,0
2022-09-10T03:42:50.837Z,0
2022-09-10T03:43:13.029Z,0
2022-09-10T03:43:47.348Z,0
2022-09-10T03:44:19.362Z,0
2022-09-10T03:44:51.422Z,0
2022-09-10T03:45:22.107Z,1.12
2022-09-10T03:45:55.344Z,1.44
2022-09-10T03:46:27.374Z,1.44
2022-09-10T03:46:51.523Z,1.77
2022-09-10T03:47:12.818Z,1.12
2022-09-10T03:47:47.507Z,1.12
2022-09-10T03:48:19.289Z,1.77
2022-09-10T03:48:55.295Z,.32
2022-09-10T03:49:22.250Z,1.12
2022-09-10T03:49:55.478Z,1.44
2022-09-10T03:50:27.372Z,1.12
2022-09-10T03:50:52.108Z,1.12
2022-09-10T03:51:12.584Z,1.44
2022-09-10T03:51:47.383Z,1.12
2022-09-10T03:52:19.326Z,.32
2022-09-10T03:52:52.455Z,2.09
2022-09-10T03:53:22.011Z,.64
2022-09-10T03:54:00.851Z,1.44
2022-09-10T03:54:27.489Z,1.44
2022-09-10T03:54:52.620Z,.32
2022-09-10T03:55:12.569Z,.64
2022-09-10T03:55:47.397Z,1.77
2022-09-10T03:56:19.388Z,1.77
2022-09-10T03:56:53.089Z,1.77
2022-09-10T03:57:22.043Z,1.12
2022-09-10T03:57:55.287Z,.64
2022-09-10T03:58:27.472Z,1.12
2022-09-10T03:58:50.136Z,1.44
2022-09-10T03:59:12.462Z,1.12
2022-09-10T03:59:47.465Z,.32
2022-09-10T04:00:19.386Z,.64
2022-09-10T04:00:53.891Z,0
2022-09-10T04:01:22.140Z,0
2022-09-10T04:01:55.582Z,.32
2022-09-10T04:02:27.469Z,0
2022-09-10T04:02:50.558Z,0
2022-09-10T04:03:12.899Z,0
2022-09-10T04:03:47.415Z,.32
2022-09-10T04:04:19.270Z,.64
2022-09-10T04:04:51.457Z,0
2022-09-10T04:05:22.144Z,.32
2022-09-10T04:05:55.369Z,1.12
2022-09-10T04:06:27.469Z,.32
2022-09-10T04:06:50.106Z,0
2022-09-10T04:07:12.449Z,.32
2022-09-10T04:07:47.410Z,.64
2022-09-10T04:08:19.500Z,.32
2022-09-10T04:08:51.877Z,.32
2022-09-10T04:09:22.263Z,1.77
2022-09-10T04:09:55.554Z,1.44
2022-09-10T04:10:27.499Z,1.12
2022-09-10T04:10:50.804Z,1.12
2022-09-10T04:11:13.107Z,1.44
2022-09-10T04:11:47.747Z,0
2022-09-10T04:12:19.565Z,.64
2022-09-10T04:12:51.345Z,1.77
2022-09-10T04:13:22.226Z,.32
2022-09-10T04:13:55.988Z,1.44
2022-09-10T04:14:27.491Z,1.44
2022-09-10T04:14:50.583Z,1.44
2022-09-10T04:15:12.455Z,.32
2022-09-10T04:15:47.301Z,1.44
2022-09-10T04:16:19.332Z,1.44
2022-09-10T04:16:51.434Z,1.77
2022-09-10T04:17:22.051Z,.32
2022-09-10T04:17:56.369Z,1.44
2022-09-10T04:18:27.439Z,1.77
2022-09-10T04:18:51.761Z,1.12
2022-09-10T04:19:12.828Z,1.44
2022-09-10T04:19:47.437Z,1.77
2022-09-10T04:20:19.269Z,1.77
2022-09-10T04:20:51.418Z,1.44
2022-09-10T04:21:22.107Z,1.77
2022-09-10T04:21:57.045Z,1.44
2022-09-10T04:22:27.297Z,1.44
2022-09-10T04:22:50.024Z,1.44
2022-09-10T04:23:12.554Z,1.44
2022-09-10T04:23:48.847Z,1.44
2022-09-10T04:24:19.291Z,1.12
2022-09-10T04:24:51.346Z,1.12
2022-09-10T04:25:22.061Z,.32
2022-09-10T04:25:57.542Z,0
2022-09-10T04:26:27.271Z,0
2022-09-10T04:26:51.454Z,0
2022-09-10T04:27:13.681Z,0
2022-09-10T04:27:47.440Z,0
2022-09-10T04:28:19.355Z,.32
2022-09-10T04:28:51.229Z,0
2022-09-10T04:29:23.613Z,1.44
2022-09-10T04:29:58.425Z,1.12
2022-09-10T04:30:27.447Z,.32
2022-09-10T04:30:50.123Z,.32
2022-09-10T04:31:12.502Z,1.77
2022-09-10T04:31:47.545Z,1.77
2022-09-10T04:32:19.324Z,1.44
2022-09-10T04:32:51.253Z,1.44
2022-09-10T04:33:22.057Z,1.77
2022-09-10T04:33:55.374Z,1.77
2022-09-10T04:34:27.505Z,1.77
2022-09-10T04:34:50.918Z,1.77
2022-09-10T04:35:13.352Z,1.44
2022-09-10T04:35:47.266Z,2.09
2022-09-10T04:36:19.254Z,1.12
2022-09-10T04:36:51.414Z,1.77
2022-09-10T04:37:22.795Z,1.44
2022-09-10T04:37:55.592Z,.32
2022-09-10T04:38:27.646Z,1.44
2022-09-10T04:38:50.637Z,1.77
2022-09-10T04:39:12.683Z,1.44
2022-09-10T04:39:47.455Z,1.12
2022-09-10T04:40:20.976Z,.32
2022-09-10T04:40:51.841Z,0
2022-09-10T04:41:22.353Z,0
2022-09-10T04:41:55.390Z,1.44
2022-09-10T04:42:27.359Z,1.77
2022-09-10T04:42:50.082Z,1.44
2022-09-10T04:43:12.718Z,1.12
2022-09-10T04:43:47.512Z,1.44
2022-09-10T04:44:19.392Z,1.12
2022-09-10T04:44:51.394Z,.32
2022-09-10T04:45:22.189Z,.64
2022-09-10T04:45:55.306Z,1.12
2022-09-10T04:46:27.760Z,0
2022-09-10T04:46:50.373Z,0
2022-09-10T04:47:13.306Z,.32
2022-09-10T04:47:47.425Z,0
2022-09-10T04:48:19.349Z,.32
2022-09-10T04:48:51.522Z,.32
2022-09-10T04:49:22.163Z,1.12
2022-09-10T04:49:55.291Z,1.44
2022-09-10T04:50:27.569Z,1.77
2022-09-10T04:51:14.675Z,1.12
2022-09-10T04:51:31.304Z,.64
2022-09-10T04:51:54.140Z,1.77
2022-09-10T04:52:16.416Z,1.77
2022-09-10T04:52:51.486Z,1.44
2022-09-10T04:53:22.174Z,2.09
2022-09-10T04:54:00.851Z,0
2022-09-10T04:54:27.440Z,.32
2022-09-10T04:54:50.023Z,.32
2022-09-10T04:55:12.457Z,1.77
2022-09-10T04:55:47.517Z,.64
2022-09-10T04:56:19.454Z,1.12
2022-09-10T04:56:51.363Z,1.44
2022-09-10T04:57:22.329Z,.32
2022-09-10T04:57:55.354Z,1.12
2022-09-10T04:58:27.376Z,0
2022-09-10T04:58:50.386Z,0
2022-09-10T04:59:12.826Z,1.44
2022-09-10T04:59:47.490Z,.64
2022-09-10T05:00:19.449Z,1.44
2022-09-10T05:00:51.406Z,1.44
2022-09-10T05:01:22.896Z,2.09
2022-09-10T05:01:55.473Z,2.09
2022-09-10T05:02:27.741Z,1.77
2022-09-10T05:02:50.144Z,2.09
2022-09-10T05:03:12.493Z,1.12
2022-09-10T05:03:47.523Z,1.44
2022-09-10T05:04:19.521Z,.32
2022-09-10T05:04:51.402Z,1.44
2022-09-10T05:05:23.693Z,1.77
2022-09-10T05:05:55.609Z,2.09
2022-09-10T05:06:27.511Z,1.77
2022-09-10T05:06:50.112Z,2.09
2022-09-10T05:07:12.749Z,1.77
2022-09-10T05:07:47.636Z,1.12
2022-09-10T05:08:19.424Z,1.44
2022-09-10T05:08:52.702Z,2.09
2022-09-10T05:09:22.487Z,2.57
2022-09-10T05:09:55.650Z,1.77
2022-09-10T05:10:27.992Z,1.12
2022-09-10T05:10:50.511Z,2.09
2022-09-10T05:11:12.834Z,1.77
2022-09-10T05:11:47.608Z,3.54
2022-09-10T05:12:19.488Z,1.44
2022-09-10T05:12:51.498Z,1.12
2022-09-10T05:13:22.377Z,2.89
2022-09-10T05:13:55.572Z,2.89
2022-09-10T05:14:27.488Z,.32
2022-09-10T05:14:52.685Z,.64
2022-09-10T05:15:13.617Z,3.54
2022-09-10T05:15:47.328Z,2.09
2022-09-10T05:16:19.433Z,2.89
2022-09-10T05:16:51.456Z,1.77
2022-09-10T05:17:22.285Z,1.77
2022-09-10T05:17:55.450Z,1.77
2022-09-10T05:18:27.620Z,1.44
2022-09-10T05:18:50.352Z,1.12
2022-09-10T05:19:12.870Z,1.44
2022-09-10T05:19:47.342Z,1.77
2022-09-10T05:20:19.472Z,1.77
2022-09-10T05:20:51.477Z,1.12
2022-09-10T05:21:22.347Z,1.77
2022-09-10T05:21:55.790Z,1.12
2022-09-10T05:22:31.752Z,3.21
2022-09-10T05:22:51.314Z,1.77
2022-09-10T05:23:13.659Z,2.09
2022-09-10T05:23:49.943Z,2.09
2022-09-10T05:24:19.322Z,.64
2022-09-10T05:24:51.307Z,1.44
2022-09-10T05:25:22.300Z,1.77
2022-09-10T05:25:55.357Z,2.09
2022-09-10T05:26:27.412Z,.32
2022-09-10T05:26:50.104Z,1.12
2022-09-10T05:27:12.407Z,2.57
2022-09-10T05:27:47.577Z,1.77
2022-09-10T05:28:19.413Z,1.44
2022-09-10T05:28:51.443Z,1.77
2022-09-10T05:29:22.452Z,1.12
2022-09-10T05:29:55.562Z,2.57
2022-09-10T05:30:27.458Z,0
2022-09-10T05:30:51.955Z,1.77
2022-09-10T05:31:12.727Z,1.77
2022-09-10T05:31:47.593Z,2.57
2022-09-10T05:32:19.741Z,2.09
2022-09-10T05:32:51.390Z,2.09
2022-09-10T05:33:22.212Z,2.09
2022-09-10T05:33:55.329Z,1.77
2022-09-10T05:34:27.895Z,1.44
2022-09-10T05:34:50.490Z,1.44
2022-09-10T05:35:15.409Z,1.44
2022-09-10T05:35:47.565Z,1.12
2022-09-10T05:36:19.443Z,2.89
2022-09-10T05:36:51.324Z,2.09
2022-09-10T05:37:22.460Z,1.77
2022-09-10T05:37:55.895Z,1.77
2022-09-10T05:38:27.500Z,2.57
2022-09-10T05:38:50.586Z,3.54
2022-09-10T05:39:13.565Z,2.09
2022-09-10T05:39:47.567Z,3.21
2022-09-10T05:40:19.369Z,2.89
2022-09-10T05:40:51.338Z,2.89
2022-09-10T05:41:22.243Z,2.09
2022-09-10T05:41:55.676Z,2.09
2022-09-10T05:42:27.267Z,1.12
2022-09-10T05:42:49.936Z,1.44
2022-09-10T05:43:12.751Z,3.21
2022-09-10T05:43:47.724Z,4.02
2022-09-10T05:44:19.535Z,2.09
2022-09-10T05:44:51.440Z,4.02
2022-09-10T05:45:22.683Z,3.54
2022-09-10T05:45:55.363Z,2.57
2022-09-10T05:46:27.923Z,1.44
2022-09-10T05:46:51.270Z,2.09
2022-09-10T05:47:13.646Z,1.44
2022-09-10T05:47:47.633Z,1.77
2022-09-10T05:48:19.485Z,.32
2022-09-10T05:48:51.622Z,.32
2022-09-10T05:49:22.339Z,.32
2022-09-10T05:49:55.417Z,2.09
2022-09-10T05:50:27.759Z,1.44
2022-09-10T05:50:50.361Z,1.12
2022-09-10T05:51:12.520Z,2.57
2022-09-10T05:51:47.414Z,1.77
2022-09-10T05:52:19.843Z,1.44
2022-09-10T05:52:51.423Z,0
2022-09-10T05:53:22.394Z,1.12
2022-09-10T05:53:58.304Z,2.57
2022-09-10T05:54:27.608Z,2.89
2022-09-10T05:54:50.095Z,1.77
2022-09-10T05:55:12.481Z,.32
2022-09-10T05:55:47.592Z,1.12
2022-09-10T05:56:19.383Z,0
2022-09-10T05:56:51.537Z,.32
2022-09-10T05:57:22.269Z,2.09
2022-09-10T05:57:56.944Z,1.77
2022-09-10T05:58:27.400Z,.32
2022-09-10T05:58:50.210Z,0
2022-09-10T05:59:12.931Z,1.44
2022-09-10T05:59:47.486Z,1.44
2022-09-10T06:00:19.339Z,1.77
2022-09-10T06:00:51.388Z,1.44
2022-09-10T06:01:22.306Z,2.89
2022-09-10T06:01:55.458Z,2.89
2022-09-10T06:02:27.397Z,2.09
2022-09-10T06:02:50.162Z,2.09
2022-09-10T06:03:13.884Z,1.77
2022-09-10T06:03:47.630Z,1.77
2022-09-10T06:04:14.036Z,.32
2022-09-10T06:04:51.847Z,1.77
2022-09-10T06:05:22.914Z,.64
2022-09-10T06:05:55.562Z,1.77
2022-09-10T06:06:27.743Z,0
2022-09-10T06:06:50.472Z,.32
2022-09-10T06:07:14.301Z,2.09
2022-09-10T06:07:47.538Z,1.12
2022-09-10T06:08:19.986Z,2.89
2022-09-10T06:08:52.120Z,3.21
2022-09-10T06:09:22.574Z,2.09
2022-09-10T06:09:57.576Z,1.44
2022-09-10T06:10:28.081Z,2.09
2022-09-10T06:10:50.901Z,3.21
2022-09-10T06:11:14.788Z,1.44
2022-09-10T06:11:48.349Z,2.09
2022-09-10T06:12:19.456Z,1.44
2022-09-10T06:12:51.380Z,2.57
2022-09-10T06:13:27.986Z,3.54
2022-09-10T06:13:50.683Z,2.89
2022-09-10T06:14:22.305Z,2.09
2022-09-10T06:14:59.395Z,3.54
2022-09-10T06:15:31.595Z,2.09
2022-09-10T06:15:54.277Z,1.77
2022-09-10T06:16:17.664Z,2.89
2022-09-10T06:16:51.729Z,1.77
2022-09-10T06:17:22.346Z,2.09
2022-09-10T06:17:55.356Z,2.89
2022-09-10T06:18:27.588Z,.32
2022-09-10T06:18:50.181Z,1.77
2022-09-10T06:19:16.025Z,1.77
2022-09-10T06:19:48.210Z,1.44
2022-09-10T06:20:21.714Z,1.44
2022-09-10T06:20:51.527Z,1.77
2022-09-10T06:21:27.475Z,1.77
2022-09-10T06:21:55.449Z,.32
2022-09-10T06:22:28.017Z,1.44
2022-09-10T06:22:50.439Z,1.44
2022-09-10T06:23:13.318Z,1.44
2022-09-10T06:23:49.925Z,1.12
2022-09-10T06:24:19.334Z,2.57
2022-09-10T06:24:52.545Z,1.77
2022-09-10T06:25:22.374Z,1.44
2022-09-10T06:25:55.339Z,1.44
2022-09-10T06:26:27.442Z,0
2022-09-10T06:26:49.992Z,1.12
2022-09-10T06:27:12.632Z,1.12
2022-09-10T06:27:47.495Z,.32
2022-09-10T06:28:19.576Z,1.77
2022-09-10T06:28:51.369Z,2.89
2022-09-10T06:29:22.612Z,2.09
2022-09-10T06:29:55.698Z,.64
2022-09-10T06:30:28.326Z,1.44
2022-09-10T06:30:51.570Z,.32
2022-09-10T06:31:13.494Z,1.77
2022-09-10T06:31:48.275Z,1.12
2022-09-10T06:32:19.286Z,.32
2022-09-10T06:32:51.763Z,1.77
2022-09-10T06:33:23.325Z,1.77
2022-09-10T06:33:55.738Z,1.77
2022-09-10T06:34:27.924Z,.32
2022-09-10T06:34:50.317Z,0
2022-09-10T06:35:13.328Z,1.44
2022-09-10T06:35:50.057Z,0
2022-09-10T06:36:20.704Z,0
2022-09-10T06:36:51.412Z,0
2022-09-10T06:37:22.399Z,.32
2022-09-10T06:37:55.250Z,0
2022-09-10T06:38:28.635Z,1.12
2022-09-10T06:38:51.565Z,2.09
2022-09-10T06:39:13.931Z,1.44
2022-09-10T06:39:48.720Z,1.44
2022-09-10T06:40:20.146Z,.64
2022-09-10T06:40:51.789Z,0
2022-09-10T06:41:22.531Z,0
2022-09-10T06:41:55.531Z,0
2022-09-10T06:42:27.465Z,.32
2022-09-10T06:42:50.026Z,.32
2022-09-10T06:43:13.653Z,0
2022-09-10T06:43:47.840Z,0
2022-09-10T06:44:20.686Z,.32
2022-09-10T06:44:51.482Z,0
2022-09-10T06:45:22.564Z,0
2022-09-10T06:45:55.338Z,.32
2022-09-10T06:47:02.860Z,0
2022-09-10T06:48:34.779Z,1.77
2022-09-10T06:48:52.041Z,.64
2022-09-10T06:49:22.222Z,2.09
2022-09-10T06:49:55.307Z,1.44
2022-09-10T06:50:27.557Z,0
2022-09-10T06:50:50.039Z,0
2022-09-10T06:51:12.423Z,0
2022-09-10T06:51:47.247Z,.64
2022-09-10T06:52:21.699Z,.32
2022-09-10T06:52:51.174Z,0
2022-09-10T06:53:22.325Z,0
2022-09-10T06:53:55.309Z,.64
2022-09-10T06:54:27.793Z,.32